OLBA

Beirut International

Airport
ICAO code
OLBA
Summary
ICAO Region
MID
ICAO Territory
Location

Beirut International, Lebanon,

Coordinates
33° 49' 15" N , 35° 29' 18" E
KCC
Metar
Observation
OLBA 071900Z 20007KT 8000 FEW036 BKN060 25/17 Q1014 NOSIG
Station
Beyrouth Aeroport
Date/Time
2022-10-07 19:00:00
Wind direction
200°
Wind speed
07 kts
Lowest cloud amount
few clouds
Temperature
25°C
Dew point
17°C
Humidity
61%
QNH
1014 hPa
Weather condition
n/a

Description

International airport serving Beirut, capital of Lebanon.

Climatology

Dry-summer subtropical ”Mediterranean" climate (Köppen climate classification Csa) - characterized by hot, dry summers and mild winters. During the summer, subtropical high pressure cells dominate, making rainfall unlikely except for the occasional thunderstorm. In the winter, periodic storms bring rain.

Runways

Designator Length Width Surface Rops
17/35 3250 60 ASP Yes/Yes
16/34 3395 45 CON Yes/Yes
3/21 3800 45 CON Yes/Yes

Airport map

Aerial View

SKYbrary Partners:

Safety knowledge contributed by: